Delta Junction, AK

7:41 AM AKDT on September 28, 2016 (GMT -0800)
Allen Army Air Field | | Change Station

Elev 1306 ft 63.99 °N, 145.72 °W | Updated 48 minutes ago

Scattered Clouds
Scattered Clouds
24 °F
Feels Like 20 °F
N
4
Wind Variable Wind from SE

Today
High -- | Low -- °F
--% Chance of Precip.
Yesterday
High -- | Low -- °F
Precip. -- in
Pressure 30.36 in
Visibility 10.0 miles
Clouds Few 10000 ft
Scattered Clouds 20000 ft
Windchill 20 °F
Dew Point 20 °F
Humidity 84%
Rainfall 0.00 in
Snow Depth Not available.
7:45 AM 7:19 PM
Waning Crescent, 5% visible
METAR PABI 281453Z 13003KT 10SM FEW100 SCT200 M04/M07 A3028 RMK AO2 SLP279 T10441067 58001
Pressure 30.36 in
Visibility 10.0 miles
Clouds Few 10000 ft
Scattered Clouds 20000 ft
Windchill 20 °F
Dew Point 20 °F
Humidity 84%
Rainfall 0.00 in
Snow Depth Not available.
7:45 AM 7:19 PM
Waning Crescent, 5% visible
METAR PABI 281453Z 13003KT 10SM FEW100 SCT200 M04/M07 A3028 RMK AO2 SLP279 T10441067 58001

10-Day Weather Forecast

Almanac

Astronomy

Sep. 28, 2016 Rise Set
Actual Time
Civil Twilight
Nautical Twilight
Astronomical Twilight
Moon
Length of Visible Light
Length of Day
Tomorrow will be .
, % of the Moon is Illuminated

Today's Extremes

State Highs State Lows

Community

WunderPhotos

Upload Photos

1,942,268 photos uploaded!

WunderBlog® & News

Nearby

Air Quality

  Air Quality AQ Index Pollutant
Not available.

Snow Depth

Station Depth Elevation

Earthquake Activity

City Distance Mag. Time & Date
Minimum magnitude displayed is 2.5.

Coastal Water Temperatures

Place Temperature

Stations

Nearby Weather Stations

Station Location Temp. Windchill Dew Point Humidity Wind Precip. Elev Updated Type
                   

Watches & Warnings

There are currently no watches in effect.